sensor_id;sensor_type;location;lat;lon;timestamp;P1;durP1;ratioP1;P2;durP2;ratioP2
65071;SDS011;51663;52.310;17.016;2022-09-09T00:06:23;9.70;;;8.73;;
65071;SDS011;51663;52.310;17.016;2022-09-09T00:09:39;10.55;;;9.55;;
65071;SDS011;51663;52.310;17.016;2022-09-09T00:12:50;9.20;;;8.27;;
65071;SDS011;51663;52.310;17.016;2022-09-09T00:16:14;10.55;;;8.95;;
65071;SDS011;51663;52.310;17.016;2022-09-09T00:19:28;9.68;;;8.73;;
65071;SDS011;51663;52.310;17.016;2022-09-09T00:29:45;9.63;;;8.73;;
65071;SDS011;51663;52.310;17.016;2022-09-09T00:32:48;9.20;;;8.45;;
65071;SDS011;51663;52.310;17.016;2022-09-09T00:35:56;9.77;;;8.80;;
65071;SDS011;51663;52.310;17.016;2022-09-09T00:39:00;10.07;;;8.82;;
65071;SDS011;51663;52.310;17.016;2022-09-09T00:42:19;9.38;;;8.48;;
65071;SDS011;51663;52.310;17.016;2022-09-09T00:46:14;10.95;;;8.40;;
65071;SDS011;51663;52.310;17.016;2022-09-09T00:59:35;9.27;;;8.02;;
65071;SDS011;51663;52.310;17.016;2022-09-09T01:06:39;9.80;;;7.53;;
65071;SDS011;51663;52.310;17.016;2022-09-09T01:09:45;8.38;;;7.68;;
65071;SDS011;51663;52.310;17.016;2022-09-09T01:12:52;7.90;;;7.20;;
65071;SDS011;51663;52.310;17.016;2022-09-09T01:16:00;8.07;;;7.38;;
65071;SDS011;51663;52.310;17.016;2022-09-09T01:19:04;8.30;;;7.20;;
65071;SDS011;51663;52.310;17.016;2022-09-09T01:28:58;7.93;;;7.30;;
65071;SDS011;51663;52.310;17.016;2022-09-09T01:32:01;7.28;;;6.68;;
65071;SDS011;51663;52.310;17.016;2022-09-09T01:38:43;7.47;;;6.88;;
65071;SDS011;51663;52.310;17.016;2022-09-09T01:41:45;8.15;;;6.88;;
65071;SDS011;51663;52.310;17.016;2022-09-09T01:44:47;7.93;;;6.88;;
65071;SDS011;51663;52.310;17.016;2022-09-09T01:47:50;7.53;;;6.82;;
65071;SDS011;51663;52.310;17.016;2022-09-09T01:50:54;8.25;;;7.40;;
65071;SDS011;51663;52.310;17.016;2022-09-09T01:53:56;7.70;;;7.07;;
65071;SDS011;51663;52.310;17.016;2022-09-09T02:00:17;8.13;;;7.32;;
65071;SDS011;51663;52.310;17.016;2022-09-09T02:03:22;7.63;;;6.93;;
65071;SDS011;51663;52.310;17.016;2022-09-09T02:06:35;8.20;;;7.35;;
65071;SDS011;51663;52.310;17.016;2022-09-09T02:09:41;7.50;;;6.75;;
65071;SDS011;51663;52.310;17.016;2022-09-09T02:12:53;7.43;;;6.85;;
65071;SDS011;51663;52.310;17.016;2022-09-09T02:16:11;7.93;;;6.93;;
65071;SDS011;51663;52.310;17.016;2022-09-09T02:19:23;7.47;;;6.88;;
65071;SDS011;51663;52.310;17.016;2022-09-09T02:22:28;7.93;;;7.22;;
65071;SDS011;51663;52.310;17.016;2022-09-09T02:25:32;9.25;;;7.20;;
65071;SDS011;51663;52.310;17.016;2022-09-09T02:28:37;7.68;;;7.07;;
65071;SDS011;51663;52.310;17.016;2022-09-09T02:31:41;8.48;;;7.75;;
65071;SDS011;51663;52.310;17.016;2022-09-09T02:34:46;7.65;;;7.05;;
65071;SDS011;51663;52.310;17.016;2022-09-09T02:37:51;7.75;;;6.88;;
65071;SDS011;51663;52.310;17.016;2022-09-09T02:40:56;7.88;;;7.07;;
65071;SDS011;51663;52.310;17.016;2022-09-09T02:43:59;7.88;;;6.80;;
65071;SDS011;51663;52.310;17.016;2022-09-09T02:50:33;7.63;;;6.88;;
65071;SDS011;51663;52.310;17.016;2022-09-09T02:54:04;7.40;;;6.68;;
65071;SDS011;51663;52.310;17.016;2022-09-09T02:57:22;6.82;;;6.28;;
65071;SDS011;51663;52.310;17.016;2022-09-09T03:00:26;7.97;;;7.38;;
65071;SDS011;51663;52.310;17.016;2022-09-09T03:03:29;7.22;;;6.53;;
65071;SDS011;51663;52.310;17.016;2022-09-09T03:06:31;6.75;;;6.15;;
65071;SDS011;51663;52.310;17.016;2022-09-09T03:09:33;7.15;;;6.50;;
65071;SDS011;51663;52.310;17.016;2022-09-09T03:12:35;8.05;;;7.32;;
65071;SDS011;51663;52.310;17.016;2022-09-09T03:15:37;8.55;;;7.25;;
65071;SDS011;51663;52.310;17.016;2022-09-09T03:18:39;7.20;;;6.70;;
65071;SDS011;51663;52.310;17.016;2022-09-09T03:21:41;8.93;;;6.82;;
65071;SDS011;51663;52.310;17.016;2022-09-09T03:24:44;7.82;;;6.47;;
65071;SDS011;51663;52.310;17.016;2022-09-09T03:27:47;8.25;;;7.47;;
65071;SDS011;51663;52.310;17.016;2022-09-09T03:30:50;7.70;;;7.07;;
65071;SDS011;51663;52.310;17.016;2022-09-09T03:33:52;8.18;;;7.38;;
65071;SDS011;51663;52.310;17.016;2022-09-09T03:36:54;7.88;;;7.22;;
65071;SDS011;51663;52.310;17.016;2022-09-09T03:39:56;6.90;;;6.35;;
65071;SDS011;51663;52.310;17.016;2022-09-09T03:42:59;6.15;;;5.65;;
65071;SDS011;51663;52.310;17.016;2022-09-09T03:46:00;6.28;;;5.88;;
65071;SDS011;51663;52.310;17.016;2022-09-09T03:49:03;8.00;;;7.15;;
65071;SDS011;51663;52.310;17.016;2022-09-09T03:52:05;7.15;;;6.65;;
65071;SDS011;51663;52.310;17.016;2022-09-09T03:55:07;7.40;;;6.78;;
65071;SDS011;51663;52.310;17.016;2022-09-09T03:58:09;7.10;;;6.57;;
65071;SDS011;51663;52.310;17.016;2022-09-09T04:01:12;7.43;;;6.70;;
65071;SDS011;51663;52.310;17.016;2022-09-09T04:04:15;7.10;;;6.53;;
65071;SDS011;51663;52.310;17.016;2022-09-09T04:07:17;7.28;;;6.70;;
65071;SDS011;51663;52.310;17.016;2022-09-09T04:10:19;7.53;;;6.82;;
65071;SDS011;51663;52.310;17.016;2022-09-09T04:13:22;9.75;;;8.73;;
65071;SDS011;51663;52.310;17.016;2022-09-09T04:16:25;9.80;;;8.93;;
65071;SDS011;51663;52.310;17.016;2022-09-09T04:19:27;7.33;;;6.60;;
65071;SDS011;51663;52.310;17.016;2022-09-09T04:22:29;8.90;;;6.38;;
65071;SDS011;51663;52.310;17.016;2022-09-09T04:25:32;6.60;;;6.10;;
65071;SDS011;51663;52.310;17.016;2022-09-09T04:28:36;8.85;;;7.50;;
65071;SDS011;51663;52.310;17.016;2022-09-09T04:31:38;6.53;;;6.03;;
65071;SDS011;51663;52.310;17.016;2022-09-09T04:34:43;7.40;;;6.65;;
65071;SDS011;51663;52.310;17.016;2022-09-09T04:37:46;6.88;;;6.25;;
65071;SDS011;51663;52.310;17.016;2022-09-09T04:40:50;7.28;;;6.65;;
65071;SDS011;51663;52.310;17.016;2022-09-09T04:43:55;6.93;;;6.43;;
65071;SDS011;51663;52.310;17.016;2022-09-09T04:46:57;8.15;;;7.30;;
65071;SDS011;51663;52.310;17.016;2022-09-09T04:49:59;11.02;;;9.80;;
65071;SDS011;51663;52.310;17.016;2022-09-09T04:53:02;13.35;;;10.68;;
65071;SDS011;51663;52.310;17.016;2022-09-09T04:56:10;16.33;;;11.23;;
65071;SDS011;51663;52.310;17.016;2022-09-09T04:59:13;24.77;;;10.65;;
65071;SDS011;51663;52.310;17.016;2022-09-09T05:02:15;37.72;;;11.38;;
65071;SDS011;51663;52.310;17.016;2022-09-09T05:05:18;54.55;;;9.90;;
65071;SDS011;51663;52.310;17.016;2022-09-09T05:08:21;43.53;;;9.18;;
65071;SDS011;51663;52.310;17.016;2022-09-09T05:11:24;67.50;;;8.85;;
65071;SDS011;51663;52.310;17.016;2022-09-09T05:14:28;41.30;;;7.88;;
65071;SDS011;51663;52.310;17.016;2022-09-09T05:17:31;61.10;;;7.97;;
65071;SDS011;51663;52.310;17.016;2022-09-09T05:20:34;39.22;;;6.38;;
65071;SDS011;51663;52.310;17.016;2022-09-09T05:23:36;23.13;;;6.47;;
65071;SDS011;51663;52.310;17.016;2022-09-09T05:26:38;12.25;;;5.97;;
65071;SDS011;51663;52.310;17.016;2022-09-09T05:29:40;16.08;;;6.85;;
65071;SDS011;51663;52.310;17.016;2022-09-09T05:32:44;13.02;;;5.88;;
65071;SDS011;51663;52.310;17.016;2022-09-09T05:35:46;20.67;;;7.40;;
65071;SDS011;51663;52.310;17.016;2022-09-09T05:38:49;24.52;;;7.97;;
65071;SDS011;51663;52.310;17.016;2022-09-09T05:41:51;9.18;;;7.20;;
65071;SDS011;51663;52.310;17.016;2022-09-09T05:44:53;12.43;;;7.22;;
65071;SDS011;51663;52.310;17.016;2022-09-09T05:47:55;11.07;;;8.13;;
65071;SDS011;51663;52.310;17.016;2022-09-09T05:50:58;9.00;;;8.15;;
65071;SDS011;51663;52.310;17.016;2022-09-09T05:54:01;8.57;;;7.88;;
65071;SDS011;51663;52.310;17.016;2022-09-09T05:57:03;9.20;;;8.50;;
65071;SDS011;51663;52.310;17.016;2022-09-09T06:00:05;8.85;;;8.13;;
65071;SDS011;51663;52.310;17.016;2022-09-09T06:03:09;7.90;;;7.32;;
65071;SDS011;51663;52.310;17.016;2022-09-09T06:06:13;8.07;;;7.55;;
65071;SDS011;51663;52.310;17.016;2022-09-09T06:09:19;8.75;;;8.05;;
65071;SDS011;51663;52.310;17.016;2022-09-09T06:12:21;8.23;;;7.63;;
65071;SDS011;51663;52.310;17.016;2022-09-09T06:15:23;8.20;;;7.70;;
65071;SDS011;51663;52.310;17.016;2022-09-09T06:18:25;7.03;;;6.53;;
65071;SDS011;51663;52.310;17.016;2022-09-09T06:21:31;8.07;;;7.57;;
65071;SDS011;51663;52.310;17.016;2022-09-09T06:24:35;7.22;;;6.72;;
65071;SDS011;51663;52.310;17.016;2022-09-09T06:27:37;7.30;;;6.60;;
65071;SDS011;51663;52.310;17.016;2022-09-09T06:30:39;7.60;;;6.88;;
65071;SDS011;51663;52.310;17.016;2022-09-09T06:33:41;7.88;;;7.30;;
65071;SDS011;51663;52.310;17.016;2022-09-09T06:36:43;9.90;;;8.68;;
65071;SDS011;51663;52.310;17.016;2022-09-09T06:39:47;8.18;;;7.57;;
65071;SDS011;51663;52.310;17.016;2022-09-09T06:42:49;6.88;;;6.40;;
65071;SDS011;51663;52.310;17.016;2022-09-09T06:45:56;6.60;;;6.07;;
65071;SDS011;51663;52.310;17.016;2022-09-09T06:48:58;7.18;;;6.38;;
65071;SDS011;51663;52.310;17.016;2022-09-09T06:52:01;6.20;;;5.80;;
65071;SDS011;51663;52.310;17.016;2022-09-09T06:55:03;6.13;;;5.68;;
65071;SDS011;51663;52.310;17.016;2022-09-09T06:58:09;6.20;;;5.60;;
65071;SDS011;51663;52.310;17.016;2022-09-09T07:01:11;6.07;;;5.68;;
65071;SDS011;51663;52.310;17.016;2022-09-09T07:04:15;5.65;;;5.15;;
65071;SDS011;51663;52.310;17.016;2022-09-09T07:07:17;5.30;;;5.00;;
65071;SDS011;51663;52.310;17.016;2022-09-09T07:10:19;6.47;;;5.32;;
65071;SDS011;51663;52.310;17.016;2022-09-09T07:13:24;4.90;;;4.70;;
65071;SDS011;51663;52.310;17.016;2022-09-09T07:16:27;5.03;;;4.72;;
65071;SDS011;51663;52.310;17.016;2022-09-09T07:19:30;4.68;;;4.38;;
65071;SDS011;51663;52.310;17.016;2022-09-09T07:22:33;4.60;;;4.28;;
65071;SDS011;51663;52.310;17.016;2022-09-09T07:25:35;4.63;;;4.35;;
65071;SDS011;51663;52.310;17.016;2022-09-09T07:28:37;4.65;;;4.45;;
65071;SDS011;51663;52.310;17.016;2022-09-09T07:31:39;5.13;;;4.50;;
65071;SDS011;51663;52.310;17.016;2022-09-09T07:34:41;5.07;;;4.78;;
65071;SDS011;51663;52.310;17.016;2022-09-09T07:37:44;5.30;;;4.90;;
65071;SDS011;51663;52.310;17.016;2022-09-09T07:40:51;4.93;;;4.63;;
65071;SDS011;51663;52.310;17.016;2022-09-09T07:43:53;5.40;;;5.00;;
65071;SDS011;51663;52.310;17.016;2022-09-09T07:46:56;5.97;;;5.22;;
65071;SDS011;51663;52.310;17.016;2022-09-09T07:49:58;4.78;;;4.47;;
65071;SDS011;51663;52.310;17.016;2022-09-09T07:53:00;4.05;;;3.70;;
65071;SDS011;51663;52.310;17.016;2022-09-09T07:56:04;4.47;;;4.22;;
65071;SDS011;51663;52.310;17.016;2022-09-09T07:59:08;4.38;;;4.07;;
65071;SDS011;51663;52.310;17.016;2022-09-09T08:02:11;4.40;;;4.10;;
65071;SDS011;51663;52.310;17.016;2022-09-09T08:05:13;5.30;;;4.28;;
65071;SDS011;51663;52.310;17.016;2022-09-09T08:08:16;5.13;;;4.82;;
65071;SDS011;51663;52.310;17.016;2022-09-09T08:11:18;4.85;;;4.43;;
65071;SDS011;51663;52.310;17.016;2022-09-09T08:14:20;4.70;;;4.30;;
65071;SDS011;51663;52.310;17.016;2022-09-09T08:17:24;4.65;;;4.25;;
65071;SDS011;51663;52.310;17.016;2022-09-09T08:20:26;4.80;;;4.30;;
65071;SDS011;51663;52.310;17.016;2022-09-09T08:23:30;4.72;;;4.43;;
65071;SDS011;51663;52.310;17.016;2022-09-09T08:26:33;4.38;;;4.00;;
65071;SDS011;51663;52.310;17.016;2022-09-09T08:29:39;3.92;;;3.63;;
65071;SDS011;51663;52.310;17.016;2022-09-09T08:32:41;3.80;;;3.50;;
65071;SDS011;51663;52.310;17.016;2022-09-09T08:35:50;4.03;;;3.75;;
65071;SDS011;51663;52.310;17.016;2022-09-09T08:38:55;6.05;;;3.10;;
65071;SDS011;51663;52.310;17.016;2022-09-09T08:48:56;4.72;;;4.28;;
65071;SDS011;51663;52.310;17.016;2022-09-09T08:52:03;6.25;;;4.18;;
65071;SDS011;51663;52.310;17.016;2022-09-09T08:55:25;4.82;;;4.32;;
65071;SDS011;51663;52.310;17.016;2022-09-09T08:58:32;4.93;;;4.63;;
65071;SDS011;51663;52.310;17.016;2022-09-09T09:02:38;6.13;;;5.55;;
65071;SDS011;51663;52.310;17.016;2022-09-09T09:05:28;4.88;;;4.57;;
65071;SDS011;51663;52.310;17.016;2022-09-09T09:08:44;5.30;;;4.80;;
65071;SDS011;51663;52.310;17.016;2022-09-09T09:12:16;4.88;;;4.35;;
65071;SDS011;51663;52.310;17.016;2022-09-09T09:15:23;4.43;;;4.07;;
65071;SDS011;51663;52.310;17.016;2022-09-09T09:18:32;4.82;;;3.97;;
65071;SDS011;51663;52.310;17.016;2022-09-09T09:21:48;5.25;;;4.75;;
65071;SDS011;51663;52.310;17.016;2022-09-09T09:28:15;4.57;;;4.18;;
65071;SDS011;51663;52.310;17.016;2022-09-09T09:31:19;4.07;;;3.42;;
65071;SDS011;51663;52.310;17.016;2022-09-09T09:34:22;4.10;;;3.67;;
65071;SDS011;51663;52.310;17.016;2022-09-09T09:37:26;4.40;;;4.10;;
65071;SDS011;51663;52.310;17.016;2022-09-09T09:40:31;3.10;;;2.90;;
65071;SDS011;51663;52.310;17.016;2022-09-09T09:43:37;3.17;;;2.97;;
65071;SDS011;51663;52.310;17.016;2022-09-09T09:46:44;4.85;;;3.28;;
65071;SDS011;51663;52.310;17.016;2022-09-09T09:49:52;3.10;;;2.80;;
65071;SDS011;51663;52.310;17.016;2022-09-09T09:52:59;3.38;;;3.17;;
65071;SDS011;51663;52.310;17.016;2022-09-09T09:56:10;2.90;;;2.70;;
65071;SDS011;51663;52.310;17.016;2022-09-09T09:59:24;3.38;;;2.67;;
65071;SDS011;51663;52.310;17.016;2022-09-09T10:02:41;2.70;;;2.50;;
65071;SDS011;51663;52.310;17.016;2022-09-09T10:05:45;3.42;;;2.53;;
65071;SDS011;51663;52.310;17.016;2022-09-09T10:08:48;2.55;;;2.10;;
65071;SDS011;51663;52.310;17.016;2022-09-09T10:11:53;2.47;;;2.28;;
65071;SDS011;51663;52.310;17.016;2022-09-09T10:18:53;2.70;;;2.53;;
65071;SDS011;51663;52.310;17.016;2022-09-09T10:25:30;3.40;;;3.10;;
65071;SDS011;51663;52.310;17.016;2022-09-09T10:29:13;3.10;;;2.90;;
65071;SDS011;51663;52.310;17.016;2022-09-09T10:36:12;3.20;;;2.50;;
65071;SDS011;51663;52.310;17.016;2022-09-09T10:42:19;4.65;;;2.78;;
65071;SDS011;51663;52.310;17.016;2022-09-09T10:45:35;2.83;;;2.00;;
65071;SDS011;51663;52.310;17.016;2022-09-09T10:52:18;4.32;;;2.45;;
65071;SDS011;51663;52.310;17.016;2022-09-09T10:55:59;2.75;;;1.88;;
65071;SDS011;51663;52.310;17.016;2022-09-09T10:59:12;2.80;;;1.92;;
65071;SDS011;51663;52.310;17.016;2022-09-09T11:02:27;2.20;;;2.00;;
65071;SDS011;51663;52.310;17.016;2022-09-09T11:05:41;2.30;;;2.10;;
65071;SDS011;51663;52.310;17.016;2022-09-09T11:08:46;2.28;;;1.90;;
65071;SDS011;51663;52.310;17.016;2022-09-09T11:11:56;1.80;;;1.70;;
65071;SDS011;51663;52.310;17.016;2022-09-09T11:15:14;3.10;;;1.58;;
65071;SDS011;51663;52.310;17.016;2022-09-09T11:18:23;3.28;;;1.80;;
65071;SDS011;51663;52.310;17.016;2022-09-09T11:21:27;1.77;;;1.63;;
65071;SDS011;51663;52.310;17.016;2022-09-09T11:24:38;3.22;;;1.40;;
65071;SDS011;51663;52.310;17.016;2022-09-09T11:37:54;1.92;;;1.70;;
65071;SDS011;51663;52.310;17.016;2022-09-09T11:41:10;10.45;;;2.88;;
65071;SDS011;51663;52.310;17.016;2022-09-09T11:44:24;1.55;;;1.33;;
65071;SDS011;51663;52.310;17.016;2022-09-09T11:47:31;2.53;;;1.27;;
65071;SDS011;51663;52.310;17.016;2022-09-09T11:50:34;3.58;;;1.10;;
65071;SDS011;51663;52.310;17.016;2022-09-09T11:53:53;2.10;;;1.13;;
65071;SDS011;51663;52.310;17.016;2022-09-09T11:57:04;2.47;;;1.45;;
65071;SDS011;51663;52.310;17.016;2022-09-09T12:03:47;1.30;;;1.20;;
65071;SDS011;51663;52.310;17.016;2022-09-09T12:10:25;2.17;;;1.30;;
65071;SDS011;51663;52.310;17.016;2022-09-09T12:13:32;2.67;;;1.40;;
65071;SDS011;51663;52.310;17.016;2022-09-09T12:16:36;3.17;;;1.25;;
65071;SDS011;51663;52.310;17.016;2022-09-09T12:19:40;3.35;;;1.55;;
65071;SDS011;51663;52.310;17.016;2022-09-09T12:32:24;2.30;;;1.42;;
65071;SDS011;51663;52.310;17.016;2022-09-09T12:35:29;1.35;;;1.10;;
65071;SDS011;51663;52.310;17.016;2022-09-09T12:38:36;2.47;;;1.40;;
65071;SDS011;51663;52.310;17.016;2022-09-09T12:41:40;4.22;;;1.58;;
65071;SDS011;51663;52.310;17.016;2022-09-09T12:47:59;2.15;;;1.33;;
65071;SDS011;51663;52.310;17.016;2022-09-09T12:51:16;3.15;;;1.08;;
65071;SDS011;51663;52.310;17.016;2022-09-09T12:54:22;11.40;;;3.78;;
65071;SDS011;51663;52.310;17.016;2022-09-09T12:57:25;2.00;;;1.35;;
65071;SDS011;51663;52.310;17.016;2022-09-09T13:00:32;1.20;;;1.08;;
65071;SDS011;51663;52.310;17.016;2022-09-09T13:03:41;5.97;;;1.63;;
65071;SDS011;51663;52.310;17.016;2022-09-09T13:06:44;2.30;;;1.30;;
65071;SDS011;51663;52.310;17.016;2022-09-09T13:09:46;1.88;;;1.30;;
65071;SDS011;51663;52.310;17.016;2022-09-09T13:12:50;2.55;;;0.98;;
65071;SDS011;51663;52.310;17.016;2022-09-09T13:15:53;3.40;;;1.30;;
65071;SDS011;51663;52.310;17.016;2022-09-09T13:19:16;2.25;;;1.23;;
65071;SDS011;51663;52.310;17.016;2022-09-09T13:22:31;1.38;;;1.27;;
65071;SDS011;51663;52.310;17.016;2022-09-09T13:25:37;2.10;;;1.23;;
65071;SDS011;51663;52.310;17.016;2022-09-09T13:28:44;1.90;;;1.23;;
65071;SDS011;51663;52.310;17.016;2022-09-09T13:31:48;3.20;;;1.55;;
65071;SDS011;51663;52.310;17.016;2022-09-09T13:34:54;2.05;;;1.00;;
65071;SDS011;51663;52.310;17.016;2022-09-09T13:38:07;3.20;;;1.33;;
65071;SDS011;51663;52.310;17.016;2022-09-09T13:41:18;2.75;;;1.90;;
65071;SDS011;51663;52.310;17.016;2022-09-09T13:44:34;4.30;;;2.92;;
65071;SDS011;51663;52.310;17.016;2022-09-09T13:47:40;1.42;;;1.33;;
65071;SDS011;51663;52.310;17.016;2022-09-09T13:50:43;3.15;;;2.17;;
65071;SDS011;51663;52.310;17.016;2022-09-09T13:53:59;2.38;;;1.35;;
65071;SDS011;51663;52.310;17.016;2022-09-09T13:57:02;1.95;;;1.30;;
65071;SDS011;51663;52.310;17.016;2022-09-09T14:00:05;3.53;;;1.10;;
65071;SDS011;51663;52.310;17.016;2022-09-09T14:03:11;2.88;;;1.23;;
65071;SDS011;51663;52.310;17.016;2022-09-09T14:06:13;2.60;;;1.20;;
65071;SDS011;51663;52.310;17.016;2022-09-09T14:09:17;3.17;;;1.65;;
65071;SDS011;51663;52.310;17.016;2022-09-09T14:12:19;4.55;;;1.35;;
65071;SDS011;51663;52.310;17.016;2022-09-09T14:15:21;3.05;;;1.25;;
65071;SDS011;51663;52.310;17.016;2022-09-09T14:18:23;1.42;;;1.25;;
65071;SDS011;51663;52.310;17.016;2022-09-09T14:21:27;2.97;;;2.55;;
65071;SDS011;51663;52.310;17.016;2022-09-09T14:24:29;3.10;;;2.90;;
65071;SDS011;51663;52.310;17.016;2022-09-09T14:27:31;3.90;;;2.30;;
65071;SDS011;51663;52.310;17.016;2022-09-09T14:30:34;3.42;;;1.60;;
65071;SDS011;51663;52.310;17.016;2022-09-09T14:33:36;2.95;;;1.15;;
65071;SDS011;51663;52.310;17.016;2022-09-09T14:36:38;3.10;;;1.40;;
65071;SDS011;51663;52.310;17.016;2022-09-09T14:39:40;1.88;;;0.90;;
65071;SDS011;51663;52.310;17.016;2022-09-09T14:42:42;1.52;;;1.30;;
65071;SDS011;51663;52.310;17.016;2022-09-09T14:45:44;2.70;;;1.30;;
65071;SDS011;51663;52.310;17.016;2022-09-09T14:48:46;5.93;;;1.70;;
65071;SDS011;51663;52.310;17.016;2022-09-09T14:51:51;1.98;;;1.65;;
65071;SDS011;51663;52.310;17.016;2022-09-09T14:54:53;1.75;;;1.38;;
65071;SDS011;51663;52.310;17.016;2022-09-09T14:57:55;2.33;;;1.40;;
65071;SDS011;51663;52.310;17.016;2022-09-09T15:01:04;1.83;;;1.20;;
65071;SDS011;51663;52.310;17.016;2022-09-09T15:04:10;5.72;;;1.40;;
65071;SDS011;51663;52.310;17.016;2022-09-09T15:07:16;1.38;;;1.20;;
65071;SDS011;51663;52.310;17.016;2022-09-09T15:10:20;1.77;;;1.40;;
65071;SDS011;51663;52.310;17.016;2022-09-09T15:13:22;1.23;;;1.05;;
65071;SDS011;51663;52.310;17.016;2022-09-09T15:16:25;1.95;;;1.38;;
65071;SDS011;51663;52.310;17.016;2022-09-09T15:19:29;2.83;;;1.52;;
65071;SDS011;51663;52.310;17.016;2022-09-09T15:22:31;2.45;;;1.67;;
65071;SDS011;51663;52.310;17.016;2022-09-09T15:25:33;2.58;;;1.70;;
65071;SDS011;51663;52.310;17.016;2022-09-09T15:28:36;1.92;;;1.33;;
65071;SDS011;51663;52.310;17.016;2022-09-09T15:31:39;1.65;;;1.55;;
65071;SDS011;51663;52.310;17.016;2022-09-09T15:34:41;1.40;;;1.00;;
65071;SDS011;51663;52.310;17.016;2022-09-09T15:37:43;1.98;;;1.30;;
65071;SDS011;51663;52.310;17.016;2022-09-09T15:40:52;2.20;;;1.35;;
65071;SDS011;51663;52.310;17.016;2022-09-09T15:43:56;2.55;;;1.60;;
65071;SDS011;51663;52.310;17.016;2022-09-09T15:46:58;2.70;;;1.35;;
65071;SDS011;51663;52.310;17.016;2022-09-09T15:50:00;4.22;;;1.67;;
65071;SDS011;51663;52.310;17.016;2022-09-09T15:53:03;3.40;;;1.70;;
65071;SDS011;51663;52.310;17.016;2022-09-09T15:56:08;3.20;;;2.20;;
65071;SDS011;51663;52.310;17.016;2022-09-09T15:59:10;2.65;;;1.48;;
65071;SDS011;51663;52.310;17.016;2022-09-09T16:02:12;3.50;;;2.00;;
65071;SDS011;51663;52.310;17.016;2022-09-09T16:05:17;3.72;;;1.70;;
65071;SDS011;51663;52.310;17.016;2022-09-09T16:08:18;2.10;;;1.52;;
65071;SDS011;51663;52.310;17.016;2022-09-09T16:14:24;3.95;;;1.85;;
65071;SDS011;51663;52.310;17.016;2022-09-09T16:17:27;2.55;;;1.88;;
65071;SDS011;51663;52.310;17.016;2022-09-09T16:20:29;3.95;;;1.80;;
65071;SDS011;51663;52.310;17.016;2022-09-09T16:23:32;5.53;;;1.45;;
65071;SDS011;51663;52.310;17.016;2022-09-09T16:26:36;4.45;;;1.63;;
65071;SDS011;51663;52.310;17.016;2022-09-09T16:29:40;7.93;;;2.15;;
65071;SDS011;51663;52.310;17.016;2022-09-09T16:32:42;3.72;;;1.88;;
65071;SDS011;51663;52.310;17.016;2022-09-09T16:35:44;3.78;;;1.80;;
65071;SDS011;51663;52.310;17.016;2022-09-09T16:38:46;3.47;;;1.77;;
65071;SDS011;51663;52.310;17.016;2022-09-09T16:41:48;5.05;;;2.00;;
65071;SDS011;51663;52.310;17.016;2022-09-09T16:44:51;4.38;;;2.50;;
65071;SDS011;51663;52.310;17.016;2022-09-09T16:47:53;3.72;;;2.88;;
65071;SDS011;51663;52.310;17.016;2022-09-09T16:51:00;8.15;;;2.85;;
65071;SDS011;51663;52.310;17.016;2022-09-09T16:54:07;6.05;;;3.38;;
65071;SDS011;51663;52.310;17.016;2022-09-09T16:57:10;5.15;;;3.10;;
65071;SDS011;51663;52.310;17.016;2022-09-09T17:00:12;2.90;;;2.60;;
65071;SDS011;51663;52.310;17.016;2022-09-09T17:03:14;4.05;;;3.22;;
65071;SDS011;51663;52.310;17.016;2022-09-09T17:06:16;4.90;;;3.42;;
65071;SDS011;51663;52.310;17.016;2022-09-09T17:09:18;3.42;;;3.03;;
65071;SDS011;51663;52.310;17.016;2022-09-09T17:12:21;4.35;;;2.80;;
65071;SDS011;51663;52.310;17.016;2022-09-09T17:15:23;6.05;;;3.28;;
65071;SDS011;51663;52.310;17.016;2022-09-09T17:18:26;8.20;;;5.22;;
65071;SDS011;51663;52.310;17.016;2022-09-09T17:21:30;7.05;;;4.10;;
65071;SDS011;51663;52.310;17.016;2022-09-09T17:24:32;8.68;;;3.67;;
65071;SDS011;51663;52.310;17.016;2022-09-09T17:27:35;6.45;;;3.17;;
65071;SDS011;51663;52.310;17.016;2022-09-09T17:30:37;6.65;;;3.40;;
65071;SDS011;51663;52.310;17.016;2022-09-09T17:33:41;5.13;;;2.65;;
65071;SDS011;51663;52.310;17.016;2022-09-09T17:36:44;3.88;;;2.40;;
65071;SDS011;51663;52.310;17.016;2022-09-09T17:39:46;3.75;;;2.90;;
65071;SDS011;51663;52.310;17.016;2022-09-09T17:42:49;6.30;;;3.47;;
65071;SDS011;51663;52.310;17.016;2022-09-09T17:45:51;3.30;;;3.00;;
65071;SDS011;51663;52.310;17.016;2022-09-09T17:48:55;7.60;;;3.38;;
65071;SDS011;51663;52.310;17.016;2022-09-09T17:51:59;4.30;;;2.78;;
65071;SDS011;51663;52.310;17.016;2022-09-09T17:55:01;5.20;;;3.30;;
65071;SDS011;51663;52.310;17.016;2022-09-09T17:58:03;5.90;;;3.40;;
65071;SDS011;51663;52.310;17.016;2022-09-09T18:01:07;6.45;;;3.15;;
65071;SDS011;51663;52.310;17.016;2022-09-09T18:04:11;6.05;;;3.75;;
65071;SDS011;51663;52.310;17.016;2022-09-09T18:07:15;8.38;;;3.22;;
65071;SDS011;51663;52.310;17.016;2022-09-09T18:10:17;11.48;;;3.35;;
65071;SDS011;51663;52.310;17.016;2022-09-09T18:13:19;13.35;;;3.75;;
65071;SDS011;51663;52.310;17.016;2022-09-09T18:16:21;12.45;;;3.22;;
65071;SDS011;51663;52.310;17.016;2022-09-09T18:19:26;8.65;;;3.60;;
65071;SDS011;51663;52.310;17.016;2022-09-09T18:22:31;9.30;;;3.20;;
65071;SDS011;51663;52.310;17.016;2022-09-09T18:25:37;9.20;;;4.10;;
65071;SDS011;51663;52.310;17.016;2022-09-09T18:28:41;8.23;;;3.25;;
65071;SDS011;51663;52.310;17.016;2022-09-09T18:31:44;7.05;;;3.00;;
65071;SDS011;51663;52.310;17.016;2022-09-09T18:34:48;13.77;;;3.70;;
65071;SDS011;51663;52.310;17.016;2022-09-09T18:37:56;8.15;;;3.60;;
65071;SDS011;51663;52.310;17.016;2022-09-09T18:40:58;11.40;;;3.85;;
65071;SDS011;51663;52.310;17.016;2022-09-09T18:44:02;11.40;;;3.67;;
65071;SDS011;51663;52.310;17.016;2022-09-09T18:47:10;12.48;;;3.75;;
65071;SDS011;51663;52.310;17.016;2022-09-09T18:50:12;8.45;;;3.55;;
65071;SDS011;51663;52.310;17.016;2022-09-09T18:53:15;5.97;;;3.67;;
65071;SDS011;51663;52.310;17.016;2022-09-09T18:56:17;7.72;;;3.83;;
65071;SDS011;51663;52.310;17.016;2022-09-09T18:59:20;12.90;;;3.35;;
65071;SDS011;51663;52.310;17.016;2022-09-09T19:02:24;11.85;;;3.80;;
65071;SDS011;51663;52.310;17.016;2022-09-09T19:05:26;6.70;;;4.00;;
65071;SDS011;51663;52.310;17.016;2022-09-09T19:08:28;9.05;;;4.22;;
65071;SDS011;51663;52.310;17.016;2022-09-09T19:11:30;10.05;;;3.53;;
65071;SDS011;51663;52.310;17.016;2022-09-09T19:14:33;9.13;;;3.63;;
65071;SDS011;51663;52.310;17.016;2022-09-09T19:17:34;10.13;;;5.13;;
65071;SDS011;51663;52.310;17.016;2022-09-09T19:20:37;8.48;;;4.10;;
65071;SDS011;51663;52.310;17.016;2022-09-09T19:23:39;12.05;;;4.75;;
65071;SDS011;51663;52.310;17.016;2022-09-09T19:26:44;7.82;;;3.75;;
65071;SDS011;51663;52.310;17.016;2022-09-09T19:29:48;6.68;;;4.30;;
65071;SDS011;51663;52.310;17.016;2022-09-09T19:32:56;7.85;;;3.85;;
65071;SDS011;51663;52.310;17.016;2022-09-09T19:36:00;11.55;;;4.30;;
65071;SDS011;51663;52.310;17.016;2022-09-09T19:39:09;7.38;;;3.75;;
65071;SDS011;51663;52.310;17.016;2022-09-09T19:42:11;8.93;;;4.85;;
65071;SDS011;51663;52.310;17.016;2022-09-09T19:45:13;7.32;;;5.45;;
65071;SDS011;51663;52.310;17.016;2022-09-09T19:48:15;10.70;;;5.30;;
65071;SDS011;51663;52.310;17.016;2022-09-09T19:51:19;9.32;;;6.70;;
65071;SDS011;51663;52.310;17.016;2022-09-09T19:54:22;11.30;;;6.57;;
65071;SDS011;51663;52.310;17.016;2022-09-09T19:57:24;9.65;;;6.70;;
65071;SDS011;51663;52.310;17.016;2022-09-09T20:00:30;10.43;;;7.32;;
65071;SDS011;51663;52.310;17.016;2022-09-09T20:03:35;12.65;;;7.00;;